createdAt,value
2018-02-22T00:00:06.000Z,0.12
2018-02-22T00:01:15.469Z,0.1
2018-02-22T00:02:25.242Z,0.12
2018-02-22T00:03:34.812Z,0.13
2018-02-22T00:04:44.131Z,0.15
2018-02-22T00:05:53.434Z,0.12
2018-02-22T00:07:03.198Z,0.13
2018-02-22T00:08:12.449Z,0.12
2018-02-22T00:09:22.435Z,0.07
2018-02-22T00:10:31.929Z,0.08
2018-02-22T00:11:41.692Z,0.1
2018-02-22T00:12:51.532Z,0.12
2018-02-22T00:14:01.077Z,0.13
2018-02-22T00:15:10.587Z,0.16
2018-02-22T00:16:20.351Z,0.16
2018-02-22T00:17:30.236Z,0.16
2018-02-22T00:18:39.201Z,0.12
2018-02-22T00:19:48.916Z,0.05
2018-02-22T00:20:58.170Z,0.12
2018-02-22T00:22:07.629Z,0.05
2018-02-22T00:23:17.081Z,0.05
2018-02-22T00:24:26.854Z,0.1
2018-02-22T00:25:36.666Z,0.05
2018-02-22T00:26:46.583Z,0.04
2018-02-22T00:27:56.702Z,0.12
2018-02-22T00:29:06.175Z,0.05
2018-02-22T00:30:15.419Z,0.1
2018-02-22T00:31:25.513Z,0.05
2018-02-22T00:32:35.569Z,0.13
2018-02-22T00:33:45.166Z,-0.01
2018-02-22T00:34:54.907Z,0.02
2018-02-22T00:36:04.828Z,-0.01
2018-02-22T00:37:14.429Z,-0.03
2018-02-22T00:38:24.147Z,-0.02
2018-02-22T00:39:33.880Z,-0.08
2018-02-22T00:40:43.766Z,-0.06
2018-02-22T00:41:53.833Z,-0.06
2018-02-22T00:43:03.462Z,-0.06
2018-02-22T00:44:13.500Z,-0.06
2018-02-22T00:45:23.459Z,-0.03
2018-02-22T00:46:33.182Z,-0.08
2018-02-22T00:47:43.166Z,-0.13
2018-02-22T00:48:52.886Z,-0.12
2018-02-22T00:50:02.904Z,-0.17
2018-02-22T00:51:12.382Z,-0.09
2018-02-22T00:52:22.370Z,-0.16
2018-02-22T00:53:32.085Z,-0.17
2018-02-22T00:54:41.269Z,-0.2
2018-02-22T00:55:50.732Z,-0.17
2018-02-22T00:57:00.759Z,-0.14
2018-02-22T00:58:10.213Z,-0.17
2018-02-22T00:59:19.785Z,-0.08
2018-02-22T01:00:29.260Z,-0.17
2018-02-22T01:01:38.983Z,-0.13
2018-02-22T01:02:48.508Z,-0.21
2018-02-22T01:03:58.535Z,-0.23
2018-02-22T01:05:08.290Z,-0.17
2018-02-22T01:06:18.068Z,-0.08
2018-02-22T01:07:27.822Z,-0.17
2018-02-22T01:08:37.274Z,-0.17
2018-02-22T01:09:46.806Z,-0.17
2018-02-22T01:10:56.581Z,-0.17
2018-02-22T01:12:06.590Z,-0.23
2018-02-22T01:13:16.591Z,-0.26
2018-02-22T01:14:26.051Z,-0.2
2018-02-22T01:15:36.041Z,-0.23
2018-02-22T01:16:45.258Z,-0.26
2018-02-22T01:17:54.978Z,-0.27
2018-02-22T01:19:04.700Z,-0.24
2018-02-22T01:20:14.443Z,-0.24
2018-02-22T01:21:23.916Z,-0.21
2018-02-22T01:22:33.370Z,-0.26
2018-02-22T01:23:43.422Z,-0.26
2018-02-22T01:24:53.209Z,-0.2
2018-02-22T01:26:03.198Z,-0.24
2018-02-22T01:27:12.652Z,-0.27
2018-02-22T01:28:22.445Z,-0.24
2018-02-22T01:29:32.253Z,-0.27
2018-02-22T01:30:41.978Z,-0.23
2018-02-22T01:31:51.964Z,-0.3
2018-02-22T01:33:01.731Z,-0.37
2018-02-22T01:34:11.447Z,-0.3
2018-02-22T01:35:21.165Z,-0.32
2018-02-22T01:36:31.153Z,-0.44
2018-02-22T01:37:40.885Z,-0.31
2018-02-22T01:38:50.608Z,-0.38
2018-02-22T01:40:00.075Z,-0.35
2018-02-22T01:41:09.902Z,-0.37
2018-02-22T01:42:19.904Z,-0.41
2018-02-22T01:43:30.015Z,-0.41
2018-02-22T01:44:40.004Z,-0.41
2018-02-22T01:45:49.463Z,-0.45
2018-02-22T01:46:59.187Z,-0.38
2018-02-22T01:48:08.642Z,-0.44
2018-02-22T01:49:18.094Z,-0.44
2018-02-22T01:50:27.809Z,-0.42
2018-02-22T01:51:37.615Z,-0.44
2018-02-22T01:52:47.349Z,-0.35
2018-02-22T01:53:57.075Z,-0.35
2018-02-22T01:55:06.531Z,-0.47
2018-02-22T01:56:16.261Z,-0.32
2018-02-22T01:57:25.984Z,-0.38
2018-02-22T01:58:35.184Z,-0.38
2018-02-22T01:59:44.408Z,-0.38
2018-02-22T02:00:54.523Z,-0.45
2018-02-22T02:02:04.249Z,-0.41
2018-02-22T02:03:13.970Z,-0.44
2018-02-22T02:04:23.702Z,-0.49
2018-02-22T02:05:33.424Z,-0.47
2018-02-22T02:06:42.611Z,-0.52
2018-02-22T02:07:52.107Z,-0.55
2018-02-22T02:09:01.298Z,-0.55
2018-02-22T02:10:11.020Z,-0.53
2018-02-22T02:11:21.016Z,-0.49
2018-02-22T02:12:29.956Z,-0.52
2018-02-22T02:13:39.681Z,-0.52
2018-02-22T02:14:49.616Z,-0.52
2018-02-22T02:15:59.408Z,-0.58
2018-02-22T02:17:09.416Z,-0.55
2018-02-22T02:18:18.875Z,-0.62
2018-02-22T02:19:28.629Z,-0.6
2018-02-22T02:20:38.466Z,-0.62
2018-02-22T02:21:48.303Z,-0.68
2018-02-22T02:22:57.778Z,-0.6
2018-02-22T02:24:07.507Z,-0.65
2018-02-22T02:25:17.246Z,-0.65
2018-02-22T02:26:26.965Z,-0.67
2018-02-22T02:27:36.440Z,-0.71
2018-02-22T02:28:46.427Z,-0.74
2018-02-22T02:29:55.886Z,-0.7
2018-02-22T02:31:05.933Z,-0.76
2018-02-22T02:32:15.714Z,-0.65
2018-02-22T02:33:25.785Z,-0.62
2018-02-22T02:34:35.513Z,-0.76
2018-02-22T02:35:45.305Z,-0.62
2018-02-22T02:36:54.786Z,-0.71
2018-02-22T02:38:04.885Z,-0.76
2018-02-22T02:39:14.936Z,-0.76
2018-02-22T02:40:24.160Z,-0.71
2018-02-22T02:41:34.163Z,-0.62
2018-02-22T02:42:43.650Z,-0.6
2018-02-22T02:43:53.373Z,-0.6
2018-02-22T02:45:03.097Z,-0.73
2018-02-22T02:46:13.106Z,-0.62
2018-02-22T02:47:22.877Z,-0.73
2018-02-22T02:48:32.403Z,-0.76
2018-02-22T02:49:41.886Z,-0.71
2018-02-22T02:50:51.872Z,-0.71
2018-02-22T02:52:01.886Z,-0.73
2018-02-22T02:53:11.966Z,-0.68
2018-02-22T02:54:21.954Z,-0.65
2018-02-22T02:55:31.986Z,-0.73
2018-02-22T02:56:41.721Z,-0.74
2018-02-22T02:57:51.180Z,-0.76
2018-02-22T02:59:00.914Z,-0.65
2018-02-22T03:00:10.919Z,-0.65
2018-02-22T03:01:21.263Z,-0.65
2018-02-22T03:02:31.259Z,-0.73
2018-02-22T03:03:41.247Z,-0.67
2018-02-22T03:04:50.975Z,-0.76
2018-02-22T03:06:00.724Z,-0.73
2018-02-22T03:07:10.456Z,-0.71
2018-02-22T03:08:20.179Z,-0.77
2018-02-22T03:09:29.626Z,-0.7
2018-02-22T03:10:39.073Z,-0.74
2018-02-22T03:11:48.330Z,-0.76
2018-02-22T03:12:58.313Z,-0.77
2018-02-22T03:14:08.053Z,-0.76
2018-02-22T03:15:18.055Z,-0.73
2018-02-22T03:16:27.517Z,-0.73
2018-02-22T03:17:36.994Z,-0.73
2018-02-22T03:18:46.724Z,-0.73
2018-02-22T03:19:56.181Z,-0.71
2018-02-22T03:21:05.944Z,-0.71
2018-02-22T03:22:15.121Z,-0.77
2018-02-22T03:23:24.911Z,-0.73
2018-02-22T03:24:34.421Z,-0.76
2018-02-22T03:25:44.423Z,-0.77
2018-02-22T03:26:54.165Z,-0.81
2018-02-22T03:28:04.163Z,-0.74
2018-02-22T03:29:14.164Z,-0.78
2018-02-22T03:30:23.985Z,-0.73
2018-02-22T03:31:34.007Z,-0.76
2018-02-22T03:32:43.772Z,-0.71
2018-02-22T03:33:53.808Z,-0.76
2018-02-22T03:35:03.578Z,-0.76
2018-02-22T03:36:13.326Z,-0.78
2018-02-22T03:37:22.805Z,-0.81
2018-02-22T03:38:32.514Z,-0.83
2018-02-22T03:39:41.968Z,-0.77
2018-02-22T03:40:51.682Z,-0.85
2018-02-22T03:42:01.396Z,-0.8
2018-02-22T03:43:11.386Z,-0.8
2018-02-22T03:44:21.111Z,-0.83
2018-02-22T03:45:30.829Z,-0.8
2018-02-22T03:46:40.850Z,-0.78
2018-02-22T03:47:50.301Z,-0.8
2018-02-22T03:49:00.411Z,-0.8
2018-02-22T03:50:09.872Z,-0.9
2018-02-22T03:51:19.859Z,-0.92
2018-02-22T03:52:29.578Z,-0.96
2018-02-22T03:53:39.106Z,-0.86
2018-02-22T03:54:48.905Z,-0.99
2018-02-22T03:55:58.639Z,-0.96
2018-02-22T03:57:08.102Z,-0.93
2018-02-22T03:58:18.084Z,-0.83
2018-02-22T03:59:27.826Z,-0.95
2018-02-22T04:00:37.279Z,-0.93
2018-02-22T04:01:46.937Z,-0.95
2018-02-22T04:02:56.658Z,-0.96
2018-02-22T04:04:06.384Z,-0.97
2018-02-22T04:05:15.581Z,-0.92
2018-02-22T04:06:25.565Z,-0.96
2018-02-22T04:07:35.025Z,-0.95
2018-02-22T04:08:44.545Z,-1.02
2018-02-22T04:09:53.996Z,-0.95
2018-02-22T04:11:04.004Z,-0.95
2018-02-22T04:12:13.733Z,-0.97
2018-02-22T04:13:23.189Z,-0.92
2018-02-22T04:14:33.181Z,-0.9
2018-02-22T04:15:42.640Z,-0.93
2018-02-22T04:16:52.351Z,-1.03
2018-02-22T04:18:01.275Z,-1.02
2018-02-22T04:19:11.260Z,-0.99
2018-02-22T04:20:21.261Z,-0.97
2018-02-22T04:21:31.237Z,-0.93
2018-02-22T04:22:41.305Z,-1.05
2018-02-22T04:23:51.100Z,-1.07
2018-02-22T04:25:00.821Z,-1.08
2018-02-22T04:26:10.001Z,-1.1
2018-02-22T04:27:19.715Z,-1.03
2018-02-22T04:28:29.169Z,-1.11
2018-02-22T04:29:38.888Z,-1
2018-02-22T04:30:48.606Z,-1.05
2018-02-22T04:31:58.320Z,-1.13
2018-02-22T04:33:08.031Z,-1.07
2018-02-22T04:34:18.017Z,-1.11
2018-02-22T04:35:27.473Z,-1.1
2018-02-22T04:36:36.759Z,-1.08
2018-02-22T04:37:46.001Z,-1.14
2018-02-22T04:38:55.451Z,-1.15
2018-02-22T04:40:05.171Z,-1.11
2018-02-22T04:41:14.879Z,-1.14
2018-02-22T04:42:24.318Z,-1.21
2018-02-22T04:43:34.028Z,-1.25
2018-02-22T04:44:44.004Z,-1.17
2018-02-22T04:45:53.452Z,-1.11
2018-02-22T04:47:03.428Z,-1.21
2018-02-22T04:48:12.895Z,-1.21
2018-02-22T04:49:22.608Z,-1.25
2018-02-22T04:50:32.403Z,-1.17
2018-02-22T04:51:42.124Z,-1.18
2018-02-22T04:52:51.570Z,-1.28
2018-02-22T04:54:01.289Z,-1.25
2018-02-22T04:55:11.002Z,-1.29
2018-02-22T04:56:20.720Z,-1.25
2018-02-22T04:57:30.452Z,-1.18
2018-02-22T04:58:40.169Z,-1.28
2018-02-22T04:59:49.367Z,-1.31
2018-02-22T05:00:59.078Z,-1.31
2018-02-22T05:02:08.834Z,-1.31
2018-02-22T05:03:18.545Z,-1.2
2018-02-22T05:04:27.995Z,-1.31
2018-02-22T05:05:37.980Z,-1.31
2018-02-22T05:06:47.429Z,-1.29
2018-02-22T05:07:56.876Z,-1.36
2018-02-22T05:09:06.605Z,-1.31
2018-02-22T05:10:16.588Z,-1.29
2018-02-22T05:11:26.316Z,-1.29
2018-02-22T05:12:36.034Z,-1.28
2018-02-22T05:13:44.952Z,-1.32
2018-02-22T05:14:54.414Z,-1.26
2018-02-22T05:16:03.339Z,-1.29
2018-02-22T05:17:13.320Z,-1.33
2018-02-22T05:18:23.031Z,-1.28
2018-02-22T05:19:33.020Z,-1.31
2018-02-22T05:20:42.743Z,-1.32
2018-02-22T05:21:52.202Z,-1.31
2018-02-22T05:23:01.930Z,-1.36
2018-02-22T05:24:11.925Z,-1.32
2018-02-22T05:25:21.376Z,-1.31
2018-02-22T05:26:31.091Z,-1.33
2018-02-22T05:27:40.808Z,-1.31
2018-02-22T05:28:50.788Z,-1.33
2018-02-22T05:30:00.517Z,-1.33
2018-02-22T05:31:09.431Z,-1.36
2018-02-22T05:32:18.878Z,-1.38
2018-02-22T05:33:28.882Z,-1.36
2018-02-22T05:34:38.329Z,-1.35
2018-02-22T05:35:47.775Z,-1.35
2018-02-22T05:36:57.552Z,-1.32
2018-02-22T05:38:07.678Z,-1.25
2018-02-22T05:39:17.396Z,-1.33
2018-02-22T05:40:27.374Z,-1.32
2018-02-22T05:41:37.098Z,-1.26
2018-02-22T05:42:47.078Z,-1.25
2018-02-22T05:43:57.070Z,-1.36
2018-02-22T05:45:06.791Z,-1.29
2018-02-22T05:46:16.513Z,-1.2
2018-02-22T05:47:26.230Z,-1.32
2018-02-22T05:48:35.679Z,-1.29
2018-02-22T05:49:45.394Z,-1.33
2018-02-22T05:50:55.110Z,-1.33
2018-02-22T05:52:04.825Z,-1.32
2018-02-22T05:53:14.302Z,-1.33
2018-02-22T05:54:24.036Z,-1.32
2018-02-22T05:55:33.755Z,-1.33
2018-02-22T05:56:43.205Z,-1.35
2018-02-22T05:57:52.653Z,-1.31
2018-02-22T05:59:02.637Z,-1.33
2018-02-22T06:00:12.352Z,-1.31
2018-02-22T06:01:21.808Z,-1.31
2018-02-22T06:02:31.268Z,-1.31
2018-02-22T06:03:41.384Z,-1.32
2018-02-22T06:04:51.096Z,-1.31
2018-02-22T06:06:00.286Z,-1.29
2018-02-22T06:07:10.008Z,-1.32
2018-02-22T06:08:19.840Z,-1.33
2018-02-22T06:09:29.580Z,-1.25
2018-02-22T06:10:39.325Z,-1.29
2018-02-22T06:11:48.782Z,-1.32
2018-02-22T06:12:58.237Z,-1.32
2018-02-22T06:14:07.419Z,-1.32
2018-02-22T06:15:16.611Z,-1.31
2018-02-22T06:16:26.071Z,-1.28
2018-02-22T06:17:35.788Z,-1.31
2018-02-22T06:18:44.975Z,-1.31
2018-02-22T06:19:54.452Z,-1.21
2018-02-22T06:21:04.241Z,-1.31
2018-02-22T06:22:14.022Z,-1.31
2018-02-22T06:23:23.544Z,-1.38
2018-02-22T06:24:33.263Z,-1.29
2018-02-22T06:25:42.447Z,-1.31
2018-02-22T06:26:51.932Z,-1.32
2018-02-22T06:28:01.416Z,-1.33
2018-02-22T06:29:10.626Z,-1.26
2018-02-22T06:30:20.361Z,-1.31
2018-02-22T06:31:30.346Z,-1.21
2018-02-22T06:32:39.834Z,-1.31
2018-02-22T06:33:49.595Z,-1.31
2018-02-22T06:34:59.595Z,-1.26
2018-02-22T06:36:09.054Z,-1.28
2018-02-22T06:37:18.505Z,-1.26
2018-02-22T06:38:28.701Z,-1.29
2018-02-22T06:39:38.336Z,-1.31
2018-02-22T06:40:47.536Z,-1.31
2018-02-22T06:41:57.247Z,-1.23
2018-02-22T06:43:06.763Z,-1.18
2018-02-22T06:44:16.544Z,-1.2
2018-02-22T06:45:26.261Z,-1.21
2018-02-22T06:46:35.714Z,-1.2
2018-02-22T06:47:45.719Z,-1.17
2018-02-22T06:48:55.472Z,-1.2
2018-02-22T06:50:05.201Z,-1.1
2018-02-22T06:51:14.957Z,-1.11
2018-02-22T06:52:24.209Z,-1.07
2018-02-22T06:53:33.966Z,-1.15
2018-02-22T06:54:43.168Z,-1.1
2018-02-22T06:55:52.898Z,-1.1
2018-02-22T06:57:02.948Z,-1.1
2018-02-22T06:58:12.152Z,-1.03
2018-02-22T06:59:21.601Z,-1.03
2018-02-22T07:00:31.336Z,-1.05
2018-02-22T07:01:41.096Z,-1
2018-02-22T07:02:50.595Z,-0.99
2018-02-22T07:04:00.314Z,-0.99
2018-02-22T07:05:10.038Z,-0.99
2018-02-22T07:06:20.019Z,-0.92
2018-02-22T07:07:29.739Z,-0.95
2018-02-22T07:08:39.746Z,-0.9
2018-02-22T07:09:48.934Z,-0.9
2018-02-22T07:10:58.911Z,-0.86
2018-02-22T07:12:08.358Z,-0.92
2018-02-22T07:13:18.342Z,-0.93
2018-02-22T07:14:28.382Z,-0.92
2018-02-22T07:15:37.913Z,-0.86
2018-02-22T07:16:47.937Z,-0.78
2018-02-22T07:17:57.422Z,-0.71
2018-02-22T07:19:07.219Z,-0.81
2018-02-22T07:20:17.269Z,-0.74
2018-02-22T07:21:27.015Z,-0.68
2018-02-22T07:22:36.517Z,-0.73
2018-02-22T07:23:46.579Z,-0.77
2018-02-22T07:24:56.054Z,-0.74
2018-02-22T07:26:06.083Z,-0.74
2018-02-22T07:27:15.544Z,-0.68
2018-02-22T07:28:25.001Z,-0.65
2018-02-22T07:29:34.207Z,-0.59
2018-02-22T07:30:43.929Z,-0.62
2018-02-22T07:31:53.650Z,-0.67
2018-02-22T07:33:03.369Z,-0.53
2018-02-22T07:34:13.445Z,-0.53
2018-02-22T07:35:23.211Z,-0.52
2018-02-22T07:36:32.401Z,-0.52
2018-02-22T07:37:42.141Z,-0.45
2018-02-22T07:38:51.937Z,-0.47
2018-02-22T07:40:01.491Z,-0.42
2018-02-22T07:41:10.974Z,-0.39
2018-02-22T07:42:20.740Z,-0.41
2018-02-22T07:43:30.184Z,-0.35
2018-02-22T07:44:40.184Z,-0.31
2018-02-22T07:45:49.923Z,-0.21
2018-02-22T07:46:59.638Z,-0.23
2018-02-22T07:48:09.086Z,-0.2
2018-02-22T07:49:18.804Z,-0.26
2018-02-22T07:50:28.778Z,-0.21
2018-02-22T07:51:38.522Z,-0.16
2018-02-22T07:52:47.712Z,-0.14
2018-02-22T07:53:56.631Z,-0.12
2018-02-22T07:55:05.823Z,-0.14
2018-02-22T07:56:15.276Z,-0.13
2018-02-22T07:57:25.270Z,-0.09
2018-02-22T07:58:34.188Z,-0.03
2018-02-22T07:59:44.184Z,-0.01
2018-02-22T08:00:53.629Z,-0.02
2018-02-22T08:02:03.077Z,0.04
2018-02-22T08:03:12.803Z,0.05
2018-02-22T08:04:22.518Z,0.12
2018-02-22T08:05:31.983Z,0.1
2018-02-22T08:06:41.726Z,0.17
2018-02-22T08:07:51.449Z,0.12
2018-02-22T08:09:01.182Z,0.17
2018-02-22T08:10:11.227Z,0.25
2018-02-22T08:11:20.946Z,0.23
2018-02-22T08:12:30.398Z,0.26
2018-02-22T08:13:39.324Z,0.33
2018-02-22T08:14:49.303Z,0.37
2018-02-22T08:15:58.756Z,0.4
2018-02-22T08:17:08.561Z,0.38
2018-02-22T08:18:18.101Z,0.41
2018-02-22T08:19:28.002Z,0.49
2018-02-22T08:20:37.992Z,0.48
2018-02-22T08:21:47.729Z,0.57
2018-02-22T08:22:57.448Z,0.6
2018-02-22T08:24:07.447Z,0.6
2018-02-22T08:25:17.163Z,0.62
2018-02-22T08:26:26.664Z,0.6
2018-02-22T08:27:35.859Z,0.7
2018-02-22T08:28:45.849Z,0.72
2018-02-22T08:29:55.571Z,0.7
2018-02-22T08:31:05.290Z,0.68
2018-02-22T08:32:15.306Z,0.8
2018-02-22T08:33:25.017Z,0.88
2018-02-22T08:34:34.732Z,0.82
2018-02-22T08:35:44.183Z,0.86
2018-02-22T08:36:53.629Z,0.8
2018-02-22T08:38:03.114Z,0.89
2018-02-22T08:39:12.606Z,0.84
2018-02-22T08:40:22.350Z,0.88
2018-02-22T08:41:32.345Z,0.96
2018-02-22T08:42:42.083Z,0.96
2018-02-22T08:43:51.623Z,0.98
2018-02-22T08:45:01.358Z,1.04
2018-02-22T08:46:10.835Z,1.06
2018-02-22T08:47:20.847Z,1.1
2018-02-22T08:48:30.612Z,1.08
2018-02-22T08:49:40.398Z,1.18
2018-02-22T08:50:50.112Z,1.25
2018-02-22T08:51:59.903Z,1.14
2018-02-22T08:53:09.892Z,1.25
2018-02-22T08:54:19.343Z,1.36
2018-02-22T08:55:29.056Z,1.35
2018-02-22T08:56:38.502Z,1.32
2018-02-22T08:57:48.222Z,1.36
2018-02-22T08:58:57.943Z,1.42
2018-02-22T09:00:07.666Z,1.43
2018-02-22T09:01:17.657Z,1.39
2018-02-22T09:02:27.692Z,1.49
2018-02-22T09:03:37.420Z,1.57
2018-02-22T09:04:47.136Z,1.52
2018-02-22T09:05:56.857Z,1.54
2018-02-22T09:07:06.874Z,1.6
2018-02-22T09:08:16.864Z,1.64
2018-02-22T09:09:26.443Z,1.67
2018-02-22T09:10:35.934Z,1.63
2018-02-22T09:11:45.390Z,1.68
2018-02-22T09:12:54.869Z,1.7
2018-02-22T09:14:04.606Z,1.72
2018-02-22T09:15:14.594Z,1.79
2018-02-22T09:16:24.577Z,1.82
2018-02-22T09:17:34.293Z,1.72
2018-02-22T09:18:44.019Z,1.77
2018-02-22T09:19:53.745Z,1.88
2018-02-22T09:21:02.935Z,1.93
2018-02-22T09:22:12.664Z,1.93
2018-02-22T09:23:22.380Z,2.01
2018-02-22T09:24:32.100Z,2.04
2018-02-22T09:25:41.824Z,2.01
2018-02-22T09:26:51.536Z,2.07
2018-02-22T09:28:01.258Z,2.08
2018-02-22T09:29:10.981Z,2.18
2018-02-22T09:30:20.810Z,2.12
2018-02-22T09:31:30.792Z,2.2
2018-02-22T09:32:39.982Z,2.27
2018-02-22T09:33:49.707Z,2.32
2018-02-22T09:34:59.425Z,2.38
2018-02-22T09:36:09.412Z,2.36
2018-02-22T09:37:19.189Z,2.37
2018-02-22T09:38:28.648Z,2.41
2018-02-22T09:39:38.373Z,2.47
2018-02-22T09:40:47.853Z,2.47
2018-02-22T09:41:57.576Z,2.59
2018-02-22T09:43:07.029Z,2.5
2018-02-22T09:44:16.530Z,2.53
2018-02-22T09:45:26.406Z,2.63
2018-02-22T09:46:35.965Z,2.56
2018-02-22T09:47:45.744Z,2.69
2018-02-22T09:48:55.785Z,2.69
2018-02-22T09:50:04.988Z,2.71
2018-02-22T09:51:14.995Z,2.81
2018-02-22T09:52:24.761Z,2.86
2018-02-22T09:53:34.215Z,2.83
2018-02-22T09:54:44.202Z,2.9
2018-02-22T09:55:53.434Z,2.86
2018-02-22T09:57:02.636Z,2.98
2018-02-22T09:58:12.377Z,2.99
2018-02-22T09:59:21.563Z,3.05
2018-02-22T10:00:31.304Z,3.04
2018-02-22T10:01:41.022Z,3.15
2018-02-22T10:02:51.009Z,3.13
2018-02-22T10:04:00.729Z,3.19
2018-02-22T10:05:10.455Z,3.22
2018-02-22T10:06:20.619Z,3.28
2018-02-22T10:07:30.706Z,3.33
2018-02-22T10:08:40.480Z,3.41
2018-02-22T10:09:50.199Z,3.46
2018-02-22T10:10:59.916Z,3.53
2018-02-22T10:12:09.639Z,3.54
2018-02-22T10:13:19.608Z,3.49
2018-02-22T10:14:29.088Z,3.44
2018-02-22T10:15:38.861Z,3.54
2018-02-22T10:16:48.049Z,3.7
2018-02-22T10:17:57.615Z,3.62
2018-02-22T10:19:07.394Z,3.71
2018-02-22T10:20:17.144Z,3.72
2018-02-22T10:21:26.861Z,3.78
2018-02-22T10:22:36.307Z,3.78
2018-02-22T10:23:45.502Z,3.88
2018-02-22T10:24:54.691Z,3.93
2018-02-22T10:26:04.686Z,3.95
2018-02-22T10:27:14.209Z,3.99
2018-02-22T10:28:24.278Z,3.99
2018-02-22T10:29:34.130Z,3.99
2018-02-22T10:30:43.945Z,4.08
2018-02-22T10:31:53.149Z,4.18
2018-02-22T10:33:02.886Z,4.2
2018-02-22T10:34:13.206Z,4.18
2018-02-22T10:35:22.667Z,4.18
2018-02-22T10:36:32.500Z,4.25
2018-02-22T10:37:41.963Z,4.2
2018-02-22T10:38:52.182Z,4.2
2018-02-22T10:40:01.661Z,4.24
2018-02-22T10:41:11.399Z,4.29
2018-02-22T10:42:20.867Z,4.25
2018-02-22T10:43:30.392Z,4.25
2018-02-22T10:44:40.232Z,4.34
2018-02-22T10:45:49.202Z,4.25
2018-02-22T10:46:58.677Z,4.29
2018-02-22T10:48:07.866Z,4.39
2018-02-22T10:49:17.753Z,4.46
2018-02-22T10:50:27.804Z,4.62
2018-02-22T10:51:37.798Z,4.62
2018-02-22T10:52:47.545Z,4.65
2018-02-22T10:53:56.763Z,4.69
2018-02-22T10:55:06.760Z,4.67
2018-02-22T10:56:16.218Z,4.72
2018-02-22T10:57:25.770Z,4.68
2018-02-22T10:58:35.230Z,4.68
2018-02-22T10:59:44.700Z,4.8
2018-02-22T11:00:53.892Z,4.83
2018-02-22T11:02:03.622Z,4.91
2018-02-22T11:03:13.376Z,4.93
2018-02-22T11:04:23.107Z,5.01
2018-02-22T11:05:32.834Z,5.09
2018-02-22T11:06:42.293Z,5.12
2018-02-22T11:07:52.024Z,5.26
2018-02-22T11:09:01.776Z,5.32
2018-02-22T11:10:11.770Z,5.23
2018-02-22T11:11:21.222Z,5.29
2018-02-22T11:12:31.026Z,5.44
2018-02-22T11:13:40.765Z,5.41
2018-02-22T11:14:50.750Z,5.44
2018-02-22T11:15:59.938Z,5.41
2018-02-22T11:17:10.138Z,5.45
2018-02-22T11:18:19.589Z,5.62
2018-02-22T11:19:28.828Z,5.6
2018-02-22T11:20:38.286Z,5.6
2018-02-22T11:21:47.498Z,5.63
2018-02-22T11:22:57.004Z,5.67
2018-02-22T11:24:06.991Z,5.65
2018-02-22T11:25:16.449Z,5.69
2018-02-22T11:26:26.171Z,5.65
2018-02-22T11:27:35.626Z,5.65
2018-02-22T11:28:44.809Z,5.74
2018-02-22T11:29:54.535Z,5.75
2018-02-22T11:31:03.725Z,5.84
2018-02-22T11:32:13.712Z,5.84
2018-02-22T11:33:23.250Z,5.87
2018-02-22T11:34:32.998Z,5.99
2018-02-22T11:35:42.451Z,6.01
2018-02-22T11:36:52.432Z,5.99
2018-02-22T11:38:02.425Z,5.87
2018-02-22T11:39:12.147Z,5.84
2018-02-22T11:40:22.190Z,5.77
2018-02-22T11:41:31.964Z,5.83
2018-02-22T11:42:41.951Z,5.92
2018-02-22T11:43:51.144Z,6.01
2018-02-22T11:45:00.897Z,6.01
2018-02-22T11:46:10.895Z,5.99
2018-02-22T11:47:20.895Z,6.05
2018-02-22T11:48:30.880Z,5.98
2018-02-22T11:49:40.604Z,6.05
2018-02-22T11:50:50.062Z,6.03
2018-02-22T11:51:59.531Z,6.03
2018-02-22T11:53:09.543Z,6.08
2018-02-22T11:54:19.533Z,6.17
2018-02-22T11:55:28.992Z,6.16
2018-02-22T11:56:38.707Z,6.19
2018-02-22T11:57:47.898Z,6.25
2018-02-22T11:58:57.363Z,6.24
2018-02-22T12:00:07.084Z,6.28
2018-02-22T12:01:16.804Z,6.3
2018-02-22T12:02:26.519Z,6.38
2018-02-22T12:03:36.235Z,6.28
2018-02-22T12:04:45.700Z,6.39
2018-02-22T12:05:55.157Z,6.35
2018-02-22T12:07:04.896Z,6.21
2018-02-22T12:08:14.891Z,6.27
2018-02-22T12:09:24.375Z,6.28
2018-02-22T12:10:34.095Z,6.25
2018-02-22T12:11:43.562Z,6.33
2018-02-22T12:12:53.021Z,6.33
2018-02-22T12:14:02.483Z,6.35
2018-02-22T12:15:12.510Z,6.43
2018-02-22T12:16:22.267Z,6.45
2018-02-22T12:17:31.782Z,6.51
2018-02-22T12:18:41.311Z,6.5
2018-02-22T12:19:50.767Z,6.48
2018-02-22T12:21:00.235Z,6.42
2018-02-22T12:22:10.225Z,6.48
2018-02-22T12:23:19.693Z,6.54
2018-02-22T12:24:29.584Z,6.45
2018-02-22T12:25:39.322Z,6.48
2018-02-22T12:26:49.321Z,6.55
2018-02-22T12:27:58.780Z,6.61
2018-02-22T12:29:08.508Z,6.64
2018-02-22T12:30:18.543Z,6.76
2018-02-22T12:31:28.590Z,6.79
2018-02-22T12:32:38.317Z,6.78
2018-02-22T12:33:47.794Z,6.89
2018-02-22T12:34:57.268Z,6.83
2018-02-22T12:36:07.001Z,6.9
2018-02-22T12:37:17.109Z,6.86
2018-02-22T12:38:26.884Z,6.91
2018-02-22T12:39:36.450Z,7.04
2018-02-22T12:40:46.181Z,7.01
2018-02-22T12:41:55.641Z,7.14
2018-02-22T12:43:05.365Z,7.15
2018-02-22T12:44:15.358Z,7.11
2018-02-22T12:45:25.147Z,7.24
2018-02-22T12:46:34.624Z,7.26
2018-02-22T12:47:44.370Z,7.27
2018-02-22T12:48:54.170Z,7.27
2018-02-22T12:50:03.894Z,7.3
2018-02-22T12:51:13.358Z,7.3
2018-02-22T12:52:23.120Z,7.16
2018-02-22T12:53:32.332Z,7.29
2018-02-22T12:54:42.649Z,7.19
2018-02-22T12:55:52.882Z,7.11
2018-02-22T12:57:02.916Z,7.14
2018-02-22T12:58:12.985Z,7.08
2018-02-22T12:59:22.986Z,7.05
2018-02-22T13:00:32.811Z,7.19
2018-02-22T13:01:42.072Z,7.09
2018-02-22T13:02:51.841Z,7.19
2018-02-22T13:04:01.337Z,7.32
2018-02-22T13:05:11.080Z,7.29
2018-02-22T13:06:20.032Z,7.42
2018-02-22T13:07:29.757Z,7.47
2018-02-22T13:08:39.434Z,7.5
2018-02-22T13:09:48.904Z,7.57
2018-02-22T13:10:58.366Z,7.54
2018-02-22T13:12:07.937Z,7.58
2018-02-22T13:13:17.712Z,7.55
2018-02-22T13:14:26.942Z,7.6
2018-02-22T13:15:36.987Z,7.69
2018-02-22T13:16:46.735Z,7.7
2018-02-22T13:17:56.462Z,7.85
2018-02-22T13:19:05.651Z,7.74
2018-02-22T13:20:15.463Z,8
2018-02-22T13:21:24.977Z,7.99
2018-02-22T13:22:34.239Z,8.04
2018-02-22T13:23:43.993Z,7.99
2018-02-22T13:24:53.441Z,8.03
2018-02-22T13:26:02.628Z,7.94
2018-02-22T13:27:11.854Z,7.99
2018-02-22T13:28:21.610Z,7.86
2018-02-22T13:29:31.355Z,7.91
2018-02-22T13:30:41.078Z,7.89
2018-02-22T13:31:51.075Z,8
2018-02-22T13:33:00.795Z,7.84
2018-02-22T13:34:09.986Z,7.89
2018-02-22T13:35:19.719Z,7.94
2018-02-22T13:36:29.446Z,7.95
2018-02-22T13:37:38.937Z,8
2018-02-22T13:38:47.871Z,8.13
2018-02-22T13:39:57.597Z,8.25
2018-02-22T13:41:07.581Z,8.25
2018-02-22T13:42:16.511Z,8.14
2018-02-22T13:43:25.965Z,8.17
2018-02-22T13:44:35.470Z,8.06
2018-02-22T13:45:45.214Z,8.09
2018-02-22T13:46:55.253Z,8.04
2018-02-22T13:48:04.715Z,8.04
2018-02-22T13:49:14.455Z,7.99
2018-02-22T13:50:24.441Z,8.03
2018-02-22T13:51:34.166Z,8.02
2018-02-22T13:52:44.235Z,8.03
2018-02-22T13:53:53.727Z,8.13
2018-02-22T13:55:03.525Z,8.07
2018-02-22T13:56:13.269Z,8.03
2018-02-22T13:57:23.288Z,8.03
2018-02-22T13:58:32.763Z,8.06
2018-02-22T13:59:42.779Z,8.02
2018-02-22T14:00:52.778Z,8
2018-02-22T14:02:02.251Z,7.96
2018-02-22T14:03:11.720Z,7.94
2018-02-22T14:04:20.952Z,8.03
2018-02-22T14:05:30.772Z,7.99
2018-02-22T14:06:40.009Z,8.06
2018-02-22T14:07:50.032Z,8.04
2018-02-22T14:08:59.776Z,8.03
2018-02-22T14:10:08.974Z,8.04
2018-02-22T14:11:18.708Z,8.13
2018-02-22T14:12:28.709Z,8.02
2018-02-22T14:13:38.167Z,8.07
2018-02-22T14:14:47.626Z,8.04
2018-02-22T14:15:56.552Z,7.89
2018-02-22T14:17:06.010Z,7.99
2018-02-22T14:18:15.778Z,7.94
2018-02-22T14:19:25.238Z,7.85
2018-02-22T14:20:34.988Z,7.94
2018-02-22T14:21:44.709Z,7.91
2018-02-22T14:22:54.212Z,7.91
2018-02-22T14:24:03.683Z,7.88
2018-02-22T14:25:12.903Z,7.96
2018-02-22T14:26:22.421Z,7.88
2018-02-22T14:27:32.145Z,7.85
2018-02-22T14:28:41.866Z,7.85
2018-02-22T14:29:51.854Z,7.81
2018-02-22T14:31:01.963Z,7.84
2018-02-22T14:32:11.448Z,7.84
2018-02-22T14:33:20.950Z,7.94
2018-02-22T14:34:30.701Z,7.86
2018-02-22T14:35:40.426Z,7.85
2018-02-22T14:36:50.215Z,7.88
2018-02-22T14:37:59.730Z,7.95
2018-02-22T14:39:09.189Z,7.95
2018-02-22T14:40:18.918Z,8
2018-02-22T14:41:28.380Z,7.86
2018-02-22T14:42:38.132Z,7.95
2018-02-22T14:43:47.859Z,8.04
2018-02-22T14:44:57.882Z,8.02
2018-02-22T14:46:07.878Z,8.02
2018-02-22T14:47:17.979Z,8.09
2018-02-22T14:48:27.970Z,8.14
2018-02-22T14:49:37.425Z,8.18
2018-02-22T14:50:47.481Z,8.1
2018-02-22T14:51:56.949Z,8.2
2018-02-22T14:53:06.674Z,8.25
2018-02-22T14:54:16.132Z,8.34
2018-02-22T14:55:26.124Z,8.36
2018-02-22T14:56:35.855Z,8.4
2018-02-22T14:57:45.650Z,8.37
2018-02-22T14:58:55.425Z,8.28
2018-02-22T15:00:04.619Z,8.2
2018-02-22T15:01:14.340Z,8.09
2018-02-22T15:02:23.818Z,7.96
2018-02-22T15:03:33.724Z,7.99
2018-02-22T15:04:43.725Z,7.99
2018-02-22T15:05:53.184Z,8.06
2018-02-22T15:07:02.908Z,8.06
2018-02-22T15:08:12.714Z,8.17
2018-02-22T15:09:22.487Z,8.18
2018-02-22T15:10:31.682Z,8.17
2018-02-22T15:11:41.154Z,8.04
2018-02-22T15:12:50.877Z,8.07
2018-02-22T15:14:00.079Z,8
2018-02-22T15:15:10.084Z,7.99